Canadian's Hourly Summary for Monday, March 13, 2017
Hour Temp
(f)
RH
(%)
Solar Rad.
(MJ/m2)
Rainfall
(in)
Wind
(mph)
3/13/2017 12:00 AM 41 76 0 0 2.25
3/13/2017 1:00 AM 40 76 0 0 2.22
3/13/2017 2:00 AM 39 86 0 0 0.74
3/13/2017 3:00 AM 41 83 0 0 3.71
3/13/2017 4:00 AM 41 86 0 0 2.62
3/13/2017 5:00 AM 41 86 0 0 5.03
3/13/2017 6:00 AM 41 77 0 0 4.33
3/13/2017 7:00 AM 41 76 0 0 5.42
3/13/2017 8:00 AM 38 77 0 0 7.68
3/13/2017 9:00 AM 35 81 0.05 0 9.89
3/13/2017 10:00 AM 35 72 0.27 0 8.66
3/13/2017 11:00 AM 37 62 0.9 0 12.3
3/13/2017 12:00 PM 41 52 2.08 0 10.74
3/13/2017 1:00 PM 43 45 2.47 0 8.83
3/13/2017 2:00 PM 46 38 2.67 0 7.7
3/13/2017 3:00 PM 48 32 2.68 0 7.96
3/13/2017 4:00 PM 50 29 2.03 0 6.61
3/13/2017 5:00 PM 52 28 1.42 0 4.46
3/13/2017 6:00 PM 52 28 0.78 0 4.06
3/13/2017 7:00 PM 51 28 0.32 0 2.79
3/13/2017 8:00 PM 48 31 0.08 0 2.34
3/13/2017 9:00 PM 45 30 0 0 2.48
3/13/2017 10:00 PM 39 32 0 0 1.21
3/13/2017 11:00 PM 36 44 0 0 1.34
Data Summary 42 56 15.75 0.00 5.22